createdAt,value
2019-05-19T06:07:08.142Z,86.85
2019-05-19T06:09:39.200Z,83.70
2019-05-19T06:12:09.769Z,84.50
2019-05-19T06:14:40.289Z,87.05
2019-05-19T06:17:11.027Z,85.42
2019-05-19T06:19:41.991Z,87.67
2019-05-19T06:22:12.447Z,81.17
2019-05-19T06:24:43.792Z,85.05
2019-05-19T06:27:14.724Z,83.62
2019-05-19T06:29:46.098Z,81.80
2019-05-19T06:32:35.955Z,82.27
2019-05-19T06:35:07.113Z,78.78
2019-05-19T06:37:37.956Z,80.50
2019-05-19T06:40:10.723Z,79.90
2019-05-19T06:42:41.399Z,80.85
2019-05-19T06:45:14.552Z,79.60
2019-05-19T06:47:47.021Z,75.28
2019-05-19T06:50:18.869Z,76.75
2019-05-19T06:52:49.619Z,80.62
2019-05-19T06:55:20.949Z,80.12
2019-05-19T06:57:51.797Z,80.92
2019-05-19T07:00:28.085Z,72.62
2019-05-19T07:02:59.185Z,69.50
2019-05-19T07:05:32.850Z,72.22
2019-05-19T07:08:04.129Z,72.15
2019-05-19T07:10:35.212Z,73.83
2019-05-19T07:13:05.806Z,69.72
2019-05-19T07:15:36.849Z,76.92
2019-05-19T07:18:07.629Z,71.90
2019-05-19T07:20:38.542Z,67.05
2019-05-19T07:23:09.414Z,73.85
2019-05-19T07:25:39.886Z,69.85
2019-05-19T07:28:10.631Z,68.55
2019-05-19T07:30:41.806Z,72.55
2019-05-19T07:33:14.065Z,70.70
2019-05-19T07:35:48.494Z,74.90
2019-05-19T07:38:20.827Z,70.57
2019-05-19T07:40:52.108Z,71.20
2019-05-19T07:43:25.441Z,70.92
2019-05-19T07:46:46.030Z,65.72
2019-05-19T07:54:57.206Z,71.90
2019-05-19T07:57:28.612Z,65.92
2019-05-19T07:59:59.662Z,68.83
2019-05-19T08:02:30.145Z,69.05
2019-05-19T08:05:02.128Z,68.70
2019-05-19T08:07:32.894Z,65.90
2019-05-19T08:10:04.650Z,65.85
2019-05-19T08:12:35.372Z,64.62
2019-05-19T08:15:32.939Z,65.05
2019-05-19T08:21:17.978Z,64.72
2019-05-19T08:24:00.041Z,65.78
2019-05-19T08:26:22.096Z,64.05
2019-05-19T08:28:53.194Z,64.80
2019-05-19T08:31:24.139Z,64.85
2019-05-19T08:33:56.676Z,63.80
2019-05-19T08:36:27.888Z,63.30
2019-05-19T08:38:59.523Z,65.55
2019-05-19T08:41:30.265Z,61.98
2019-05-19T08:44:13.825Z,62.43
2019-05-19T08:46:44.278Z,60.58
2019-05-19T08:49:15.175Z,61.20
2019-05-19T08:52:10.537Z,62.58
2019-05-19T08:54:43.227Z,65.15
2019-05-19T08:57:15.579Z,69.30
2019-05-19T08:59:55.351Z,63.15
2019-05-19T09:02:26.213Z,61.30
2019-05-19T09:05:02.272Z,65.05
2019-05-19T09:07:56.080Z,64.67
2019-05-19T09:10:27.610Z,66.15
2019-05-19T09:13:00.090Z,63.55
2019-05-19T09:16:04.257Z,65.00
2019-05-19T09:19:17.165Z,64.67
2019-05-19T09:22:13.480Z,68.62
2019-05-19T09:24:44.839Z,66.12
2019-05-19T09:27:16.172Z,65.83
2019-05-19T09:29:46.897Z,65.37
2019-05-19T09:32:18.405Z,64.75
2019-05-19T09:34:50.084Z,63.73
2019-05-19T09:37:21.376Z,62.95
2019-05-19T09:39:52.288Z,63.73
2019-05-19T09:42:23.244Z,63.65
2019-05-19T09:44:54.337Z,63.48
2019-05-19T09:47:25.868Z,62.15
2019-05-19T09:49:56.436Z,61.53
2019-05-19T09:52:27.698Z,61.80
2019-05-19T09:54:59.416Z,66.25
2019-05-19T09:57:30.218Z,64.32
2019-05-19T10:04:48.421Z,60.45
2019-05-19T10:07:19.558Z,56.80
2019-05-19T10:10:08.844Z,55.28
2019-05-19T10:15:51.876Z,58.80
2019-05-19T10:18:23.095Z,56.45
2019-05-19T10:20:54.503Z,59.60
2019-05-19T10:23:25.097Z,57.85
2019-05-19T10:25:55.882Z,52.88
2019-05-19T10:28:27.163Z,55.50
2019-05-19T10:30:57.860Z,54.58
2019-05-19T10:33:29.252Z,54.58
2019-05-19T10:35:59.873Z,53.42
2019-05-19T10:38:30.982Z,53.60
2019-05-19T10:41:03.661Z,51.05
2019-05-19T10:43:34.083Z,52.23
2019-05-19T10:46:05.396Z,56.63
2019-05-19T10:48:36.097Z,51.00
2019-05-19T10:51:07.503Z,53.70
2019-05-19T10:54:17.775Z,50.33
2019-05-19T10:56:48.851Z,51.83
2019-05-19T10:59:19.951Z,48.38
2019-05-19T11:01:50.806Z,55.17
2019-05-19T11:04:22.536Z,50.65
2019-05-19T11:06:53.325Z,53.08
2019-05-19T11:09:24.435Z,48.63
2019-05-19T11:11:55.482Z,54.83
2019-05-19T11:14:26.182Z,51.80
2019-05-19T11:16:57.378Z,49.73
2019-05-19T11:19:28.853Z,50.63
2019-05-19T11:22:00.465Z,47.95
2019-05-19T11:27:27.202Z,49.13
2019-05-19T11:31:31.854Z,51.70
2019-05-19T11:34:02.715Z,47.60
2019-05-19T11:36:33.739Z,49.48
2019-05-19T11:39:07.143Z,47.23
2019-05-19T11:42:17.810Z,47.60
2019-05-19T11:44:49.369Z,46.60
2019-05-19T11:47:20.203Z,49.50
2019-05-19T11:49:51.075Z,48.83
2019-05-19T11:52:22.055Z,48.65
2019-05-19T11:54:52.641Z,46.68
2019-05-19T12:00:18.285Z,43.17
2019-05-19T12:05:30.659Z,49.83
2019-05-19T12:08:01.827Z,44.60
2019-05-19T12:10:41.471Z,43.95
2019-05-19T12:13:12.269Z,41.15
2019-05-19T12:15:43.152Z,47.05
2019-05-19T12:18:14.555Z,45.08
2019-05-19T12:20:45.303Z,43.95
2019-05-19T12:23:17.103Z,41.28
2019-05-19T12:32:54.098Z,47.48
2019-05-19T12:35:24.829Z,46.37
2019-05-19T12:37:55.798Z,47.15
2019-05-19T12:40:26.690Z,45.05
2019-05-19T12:42:57.268Z,44.35
2019-05-19T12:45:29.389Z,44.53
2019-05-19T12:48:00.598Z,44.42
2019-05-19T12:50:31.560Z,42.43
2019-05-19T12:53:02.224Z,44.13
2019-05-19T12:55:32.718Z,47.35
2019-05-19T12:58:03.341Z,42.43
2019-05-19T13:00:34.137Z,45.15
2019-05-19T13:03:04.921Z,42.73
2019-05-19T13:05:35.338Z,43.98
2019-05-19T13:08:05.914Z,44.80
2019-05-19T13:10:36.747Z,47.95
2019-05-19T13:13:07.120Z,44.65
2019-05-19T13:16:12.720Z,44.00
2019-05-19T13:18:43.370Z,41.42
2019-05-19T13:21:13.793Z,43.98
2019-05-19T13:23:44.349Z,43.55
2019-05-19T13:26:16.218Z,42.65
2019-05-19T13:28:46.704Z,42.38
2019-05-19T13:31:17.760Z,44.45
2019-05-19T13:33:48.278Z,42.27
2019-05-19T13:36:18.815Z,47.15
2019-05-19T13:38:49.746Z,45.55
2019-05-19T13:41:21.852Z,44.58
2019-05-19T13:43:52.437Z,44.60
2019-05-19T13:50:26.935Z,46.37
2019-05-19T13:52:59.379Z,45.08
2019-05-19T13:55:30.999Z,46.60
2019-05-19T13:58:03.634Z,44.55
2019-05-19T14:00:34.670Z,47.35
2019-05-19T14:03:06.059Z,48.78
2019-05-19T14:05:36.917Z,47.93
2019-05-19T14:08:07.527Z,49.50
2019-05-19T14:11:15.622Z,49.50
2019-05-19T14:13:46.317Z,48.68
2019-05-19T14:16:17.380Z,53.25
2019-05-19T14:18:48.750Z,50.20
2019-05-19T14:21:19.243Z,50.75
2019-05-19T14:23:50.202Z,52.17
2019-05-19T14:26:21.273Z,58.70
2019-05-19T14:28:52.179Z,51.60
2019-05-19T14:31:22.979Z,48.60
2019-05-19T14:33:54.034Z,53.08
2019-05-19T14:36:24.864Z,49.80
2019-05-19T14:39:05.405Z,52.75
2019-05-19T14:41:39.001Z,55.00
2019-05-19T14:44:10.082Z,55.50
2019-05-19T14:46:41.117Z,51.08
2019-05-19T14:49:12.904Z,50.45
2019-05-19T14:54:31.581Z,52.90
2019-05-19T14:57:02.578Z,52.10
2019-05-19T14:59:34.477Z,52.03
2019-05-19T15:04:53.808Z,53.02
2019-05-19T15:07:25.560Z,50.63
2019-05-19T15:10:03.056Z,54.85
2019-05-19T15:12:33.541Z,51.48
2019-05-19T15:15:15.925Z,49.13
2019-05-19T15:17:46.297Z,50.58
2019-05-19T15:20:18.601Z,49.60
2019-05-19T15:22:52.469Z,49.55
2019-05-19T15:25:23.700Z,50.30
2019-05-19T15:28:00.155Z,50.43
2019-05-19T15:30:30.003Z,52.58
2019-05-19T15:33:01.824Z,51.20
2019-05-19T15:35:32.731Z,47.65
2019-05-19T15:38:04.399Z,47.58
2019-05-19T15:40:35.167Z,49.45
2019-05-19T15:43:05.861Z,47.40
2019-05-19T15:45:38.237Z,45.00
2019-05-19T15:48:09.823Z,49.10
2019-05-19T15:50:40.521Z,46.50
2019-05-19T15:53:13.858Z,48.40
2019-05-19T15:55:58.384Z,49.08
2019-05-19T15:58:29.213Z,47.15
2019-05-19T16:01:01.302Z,49.93
2019-05-19T16:03:31.909Z,51.50
2019-05-19T16:06:02.735Z,50.73
2019-05-19T16:08:33.907Z,53.02
2019-05-19T16:11:06.077Z,50.63
2019-05-19T16:13:37.833Z,49.80
2019-05-19T16:16:08.724Z,51.13
2019-05-19T16:18:39.564Z,48.52
2019-05-19T16:21:10.212Z,52.60
2019-05-19T16:23:41.358Z,49.38
2019-05-19T16:26:12.757Z,50.25
2019-05-19T16:28:45.667Z,53.05
2019-05-19T16:31:16.418Z,55.73
2019-05-19T16:33:46.902Z,51.90
2019-05-19T16:36:18.466Z,55.90
2019-05-19T16:38:48.613Z,52.25
2019-05-19T16:41:18.915Z,57.20
2019-05-19T16:44:20.554Z,52.23
2019-05-19T16:46:50.789Z,54.90
2019-05-19T16:49:21.856Z,54.95
2019-05-19T16:51:58.702Z,53.75
2019-05-19T16:54:33.873Z,53.52
2019-05-19T16:57:04.112Z,53.80
2019-05-19T16:59:35.110Z,50.83
2019-05-19T17:02:05.443Z,55.20
2019-05-19T17:04:36.155Z,55.28
2019-05-19T17:07:06.734Z,53.90
2019-05-19T17:09:37.264Z,55.43
2019-05-19T17:12:07.513Z,59.55
2019-05-19T17:15:05.383Z,50.08
2019-05-19T17:17:33.545Z,51.40
2019-05-19T17:20:04.326Z,47.88
2019-05-19T17:22:34.666Z,52.58
2019-05-19T17:25:05.027Z,51.50
2019-05-19T17:27:41.955Z,51.92
2019-05-19T17:30:14.294Z,50.52
2019-05-19T17:32:44.515Z,53.35
2019-05-19T17:35:14.875Z,50.25
2019-05-19T17:37:45.134Z,50.67
2019-05-19T17:40:20.005Z,52.70
2019-05-19T17:42:50.284Z,52.15
2019-05-19T17:45:21.184Z,54.48
2019-05-19T17:47:53.663Z,56.13
2019-05-19T17:50:35.108Z,53.40
2019-05-19T17:53:05.572Z,51.90
2019-05-19T17:55:36.566Z,57.40
2019-05-19T17:58:07.258Z,59.10
2019-05-19T18:00:42.183Z,54.58
2019-05-19T18:03:26.266Z,56.60
2019-05-19T18:06:34.634Z,58.08
2019-05-19T18:09:06.775Z,61.75
2019-05-19T18:11:44.130Z,53.25
2019-05-19T18:14:14.308Z,61.05
2019-05-19T18:16:44.633Z,58.23
2019-05-19T18:19:15.335Z,59.20
2019-05-19T18:21:46.044Z,60.63
2019-05-19T18:24:16.341Z,64.10
2019-05-19T18:26:46.746Z,69.03
2019-05-19T18:29:30.483Z,63.50
2019-05-19T18:31:49.362Z,67.92
2019-05-19T18:34:20.026Z,63.05
2019-05-19T18:36:50.280Z,55.15
2019-05-19T18:39:21.361Z,57.48
2019-05-19T18:41:51.491Z,58.90
2019-05-19T18:44:22.345Z,60.38
2019-05-19T18:46:52.651Z,61.00
2019-05-19T18:49:22.897Z,63.58
2019-05-19T18:51:53.681Z,63.17
2019-05-19T18:54:23.925Z,60.67
2019-05-19T18:56:54.159Z,61.40
2019-05-19T18:59:24.979Z,61.58
2019-05-19T19:01:55.238Z,70.17
2019-05-19T19:04:25.696Z,57.93
2019-05-19T19:06:55.916Z,74.58
2019-05-19T19:09:26.104Z,71.57
2019-05-19T19:11:56.568Z,75.92
2019-05-19T19:14:27.755Z,75.67
2019-05-19T19:16:58.789Z,75.55
2019-05-19T19:19:29.503Z,80.65
2019-05-19T19:21:59.765Z,82.67
2019-05-19T19:24:30.014Z,83.03
2019-05-19T19:27:00.214Z,82.17
2019-05-19T19:29:30.438Z,81.28
2019-05-19T19:32:00.831Z,84.62
2019-05-19T19:34:31.114Z,92.95
2019-05-19T19:37:01.818Z,94.55
2019-05-19T19:39:32.744Z,94.87
2019-05-19T19:42:03.259Z,95.92
2019-05-19T19:44:34.203Z,95.35
2019-05-19T19:47:04.376Z,102.12
2019-05-19T19:49:36.941Z,101.80
2019-05-19T19:52:07.230Z,104.43
2019-05-19T19:54:41.118Z,112.28
2019-05-19T19:57:13.120Z,107.52
2019-05-19T19:59:43.693Z,109.50
2019-05-19T20:02:22.545Z,108.00
2019-05-19T20:04:52.809Z,105.03
2019-05-19T20:07:23.065Z,111.68
2019-05-19T20:09:58.808Z,111.42
2019-05-19T20:12:35.248Z,106.47
2019-05-19T20:15:32.925Z,106.25
2019-05-19T20:18:03.576Z,103.42
2019-05-19T20:20:33.834Z,115.72
2019-05-19T20:23:04.971Z,106.35
2019-05-19T20:25:37.194Z,112.50
2019-05-19T20:28:07.673Z,114.28
2019-05-19T20:30:37.984Z,119.80
2019-05-19T20:33:09.246Z,116.17
2019-05-19T20:35:39.811Z,110.45
2019-05-19T20:38:09.964Z,117.05
2019-05-19T20:40:40.261Z,115.57
2019-05-19T20:43:33.124Z,121.55
2019-05-19T20:46:04.292Z,112.10
2019-05-19T20:48:34.529Z,110.70
2019-05-19T20:51:05.462Z,114.77
2019-05-19T20:53:40.616Z,105.03
2019-05-19T21:03:19.674Z,105.30
2019-05-19T21:05:50.162Z,112.88
2019-05-19T21:12:19.364Z,115.85
2019-05-19T21:14:44.420Z,123.53
2019-05-19T21:17:19.147Z,117.72
2019-05-19T21:19:57.931Z,128.40
2019-05-19T21:23:10.072Z,132.55
2019-05-19T21:29:18.015Z,119.62
2019-05-19T21:31:50.180Z,134.20
2019-05-19T21:40:09.975Z,125.75
2019-05-19T21:46:21.871Z,119.28
2019-05-19T21:49:17.666Z,116.15
2019-05-19T21:53:00.956Z,116.73
2019-05-19T21:55:34.497Z,118.50
2019-05-19T21:58:16.406Z,109.35
2019-05-19T22:01:22.770Z,108.40
2019-05-19T22:04:29.350Z,107.83
2019-05-19T22:07:53.357Z,97.88
2019-05-19T22:10:31.338Z,99.95
2019-05-19T22:13:19.666Z,88.78
2019-05-19T22:15:51.339Z,93.33
2019-05-19T22:18:23.147Z,94.58
2019-05-19T22:20:57.366Z,91.57
2019-05-19T22:23:39.287Z,94.47
2019-05-19T22:26:28.699Z,85.17
2019-05-19T22:29:08.576Z,93.40
2019-05-19T22:32:06.714Z,90.85
2019-05-19T22:37:52.752Z,94.83
2019-05-19T22:40:24.444Z,93.92
2019-05-19T22:43:33.566Z,96.97
2019-05-19T22:46:20.678Z,101.92
2019-05-19T22:48:59.329Z,89.87
2019-05-19T22:51:38.307Z,92.92
2019-05-19T22:57:04.355Z,91.45
2019-05-19T22:59:50.316Z,109.40
2019-05-19T23:02:41.182Z,101.20
2019-05-19T23:05:31.995Z,94.22
2019-05-19T23:08:03.229Z,106.95
2019-05-19T23:10:58.234Z,100.33
2019-05-19T23:13:30.294Z,94.03
2019-05-19T23:16:14.206Z,94.95
2019-05-19T23:18:46.038Z,88.47
2019-05-19T23:22:16.840Z,87.72
2019-05-19T23:24:49.940Z,91.87
2019-05-19T23:27:24.710Z,84.30
2019-05-19T23:30:21.150Z,79.50
2019-05-19T23:33:15.344Z,89.00
2019-05-19T23:36:14.573Z,80.97
2019-05-19T23:38:56.960Z,78.30
2019-05-19T23:44:38.475Z,73.30
2019-05-19T23:47:45.000Z,69.72
2019-05-19T23:50:18.550Z,62.78
2019-05-19T23:53:06.889Z,65.55
2019-05-19T23:55:40.577Z,66.85
